Alcove, New York
Current Conditions -  °F | °C
As of 7:51 PM on Friday 24 Oct 2014 (Local Time) from KALB Reporting Station
Moderate Fog Moderate Fog  
Wind Chill:   Ceiling: 5000
Heat Index:   Visibility: 10mi
Dew Point:   Wind: 6mph
Humidity: 90%   Direction: 360°N
Pressure: 29.86"   Gusts: NA
Location:  42.47°N, 73.93°W
Report Text: KALB 242351Z 36005KT 10SM VCFG FEW008 BKN050 OVC070 08/07 A2986 RMK AO2 SLP111 VCFG N-E AND S AND NW 60000 T00830067 10094 20083 53012 $
Loading
Personal Weather Stations






























Interactive Weather Map
Tropical Storm Tracking
New forecast layout! Learn more

10-Day Weather Forecast

Advertisements
Track Severe Weather on mobile